sensor_id;sensor_type;location;lat;lon;timestamp;P1;durP1;ratioP1;P2;durP2;ratioP2
13891;SDS011;7016;48.172;8.058;2022-09-02T00:00:53;9.52;;;3.13;;
13891;SDS011;7016;48.172;8.058;2022-09-02T00:03:34;5.95;;;2.92;;
13891;SDS011;7016;48.172;8.058;2022-09-02T00:06:00;7.60;;;3.20;;
13891;SDS011;7016;48.172;8.058;2022-09-02T00:08:26;6.13;;;3.30;;
13891;SDS011;7016;48.172;8.058;2022-09-02T00:10:55;6.40;;;3.17;;
13891;SDS011;7016;48.172;8.058;2022-09-02T00:13:21;5.18;;;3.22;;
13891;SDS011;7016;48.172;8.058;2022-09-02T00:15:47;8.27;;;3.15;;
13891;SDS011;7016;48.172;8.058;2022-09-02T00:18:14;6.47;;;3.20;;
13891;SDS011;7016;48.172;8.058;2022-09-02T00:20:42;6.10;;;3.25;;
13891;SDS011;7016;48.172;8.058;2022-09-02T00:23:09;5.78;;;3.20;;
13891;SDS011;7016;48.172;8.058;2022-09-02T00:25:36;6.10;;;3.33;;
13891;SDS011;7016;48.172;8.058;2022-09-02T00:28:02;6.43;;;3.47;;
13891;SDS011;7016;48.172;8.058;2022-09-02T00:30:29;5.30;;;3.45;;
13891;SDS011;7016;48.172;8.058;2022-09-02T00:32:55;7.60;;;3.65;;
13891;SDS011;7016;48.172;8.058;2022-09-02T00:35:20;5.57;;;3.50;;
13891;SDS011;7016;48.172;8.058;2022-09-02T00:37:46;4.93;;;3.63;;
13891;SDS011;7016;48.172;8.058;2022-09-02T00:40:12;4.45;;;3.25;;
13891;SDS011;7016;48.172;8.058;2022-09-02T00:42:39;10.13;;;3.08;;
13891;SDS011;7016;48.172;8.058;2022-09-02T00:45:06;4.97;;;3.22;;
13891;SDS011;7016;48.172;8.058;2022-09-02T00:47:33;7.07;;;3.63;;
13891;SDS011;7016;48.172;8.058;2022-09-02T00:50:00;8.10;;;3.30;;
13891;SDS011;7016;48.172;8.058;2022-09-02T00:52:34;6.90;;;3.35;;
13891;SDS011;7016;48.172;8.058;2022-09-02T00:57:52;7.05;;;3.20;;
13891;SDS011;7016;48.172;8.058;2022-09-02T01:00:39;3.75;;;2.85;;
13891;SDS011;7016;48.172;8.058;2022-09-02T01:03:09;4.15;;;3.53;;
13891;SDS011;7016;48.172;8.058;2022-09-02T01:05:38;4.38;;;3.47;;
13891;SDS011;7016;48.172;8.058;2022-09-02T01:08:09;13.55;;;3.85;;
13891;SDS011;7016;48.172;8.058;2022-09-02T01:10:37;4.78;;;2.90;;
13891;SDS011;7016;48.172;8.058;2022-09-02T01:13:05;6.40;;;3.35;;
13891;SDS011;7016;48.172;8.058;2022-09-02T01:15:34;3.50;;;2.83;;
13891;SDS011;7016;48.172;8.058;2022-09-02T01:18:02;5.80;;;2.72;;
13891;SDS011;7016;48.172;8.058;2022-09-02T01:20:29;7.13;;;2.42;;
13891;SDS011;7016;48.172;8.058;2022-09-02T01:22:55;7.57;;;2.95;;
13891;SDS011;7016;48.172;8.058;2022-09-02T01:25:23;9.50;;;2.70;;
13891;SDS011;7016;48.172;8.058;2022-09-02T01:27:52;4.55;;;2.78;;
13891;SDS011;7016;48.172;8.058;2022-09-02T01:30:19;5.03;;;2.67;;
13891;SDS011;7016;48.172;8.058;2022-09-02T01:32:47;2.78;;;2.33;;
13891;SDS011;7016;48.172;8.058;2022-09-02T01:35:13;3.90;;;2.60;;
13891;SDS011;7016;48.172;8.058;2022-09-02T01:37:39;3.15;;;2.58;;
13891;SDS011;7016;48.172;8.058;2022-09-02T01:40:07;3.95;;;2.88;;
13891;SDS011;7016;48.172;8.058;2022-09-02T01:42:36;4.60;;;2.63;;
13891;SDS011;7016;48.172;8.058;2022-09-02T01:45:03;5.32;;;3.47;;
13891;SDS011;7016;48.172;8.058;2022-09-02T01:47:29;4.63;;;3.10;;
13891;SDS011;7016;48.172;8.058;2022-09-02T01:49:56;6.60;;;2.70;;
13891;SDS011;7016;48.172;8.058;2022-09-02T01:52:23;6.32;;;2.63;;
13891;SDS011;7016;48.172;8.058;2022-09-02T01:54:52;3.65;;;2.90;;
13891;SDS011;7016;48.172;8.058;2022-09-02T01:57:18;6.15;;;3.15;;
13891;SDS011;7016;48.172;8.058;2022-09-02T01:59:44;5.05;;;3.17;;
13891;SDS011;7016;48.172;8.058;2022-09-02T02:02:10;3.35;;;2.53;;
13891;SDS011;7016;48.172;8.058;2022-09-02T02:04:37;3.70;;;3.20;;
13891;SDS011;7016;48.172;8.058;2022-09-02T02:07:04;4.60;;;3.13;;
13891;SDS011;7016;48.172;8.058;2022-09-02T02:09:30;6.13;;;3.05;;
13891;SDS011;7016;48.172;8.058;2022-09-02T02:11:55;6.57;;;3.63;;
13891;SDS011;7016;48.172;8.058;2022-09-02T02:14:21;4.70;;;2.83;;
13891;SDS011;7016;48.172;8.058;2022-09-02T02:16:47;5.53;;;3.15;;
13891;SDS011;7016;48.172;8.058;2022-09-02T02:19:13;5.28;;;2.70;;
13891;SDS011;7016;48.172;8.058;2022-09-02T02:21:39;4.07;;;2.85;;
13891;SDS011;7016;48.172;8.058;2022-09-02T02:24:05;6.57;;;3.10;;
13891;SDS011;7016;48.172;8.058;2022-09-02T02:26:32;5.07;;;3.13;;
13891;SDS011;7016;48.172;8.058;2022-09-02T02:28:58;3.92;;;3.20;;
13891;SDS011;7016;48.172;8.058;2022-09-02T02:31:24;3.70;;;2.58;;
13891;SDS011;7016;48.172;8.058;2022-09-02T02:33:50;5.85;;;3.13;;
13891;SDS011;7016;48.172;8.058;2022-09-02T02:36:15;5.15;;;2.97;;
13891;SDS011;7016;48.172;8.058;2022-09-02T02:38:41;3.83;;;2.80;;
13891;SDS011;7016;48.172;8.058;2022-09-02T02:41:10;4.35;;;2.63;;
13891;SDS011;7016;48.172;8.058;2022-09-02T02:43:37;4.13;;;2.80;;
13891;SDS011;7016;48.172;8.058;2022-09-02T02:46:03;3.65;;;2.38;;
13891;SDS011;7016;48.172;8.058;2022-09-02T02:48:29;5.43;;;2.42;;
13891;SDS011;7016;48.172;8.058;2022-09-02T02:50:55;3.35;;;2.53;;
13891;SDS011;7016;48.172;8.058;2022-09-02T02:53:21;3.35;;;2.33;;
13891;SDS011;7016;48.172;8.058;2022-09-02T02:55:47;6.43;;;2.60;;
13891;SDS011;7016;48.172;8.058;2022-09-02T02:58:13;7.03;;;2.75;;
13891;SDS011;7016;48.172;8.058;2022-09-02T03:00:38;2.42;;;2.17;;
13891;SDS011;7016;48.172;8.058;2022-09-02T03:03:06;3.83;;;2.35;;
13891;SDS011;7016;48.172;8.058;2022-09-02T03:05:33;4.40;;;2.10;;
13891;SDS011;7016;48.172;8.058;2022-09-02T03:08:02;4.97;;;2.03;;
13891;SDS011;7016;48.172;8.058;2022-09-02T03:10:33;3.30;;;1.75;;
13891;SDS011;7016;48.172;8.058;2022-09-02T03:13:00;4.63;;;2.45;;
13891;SDS011;7016;48.172;8.058;2022-09-02T03:15:26;4.10;;;2.40;;
13891;SDS011;7016;48.172;8.058;2022-09-02T03:17:53;5.35;;;2.47;;
13891;SDS011;7016;48.172;8.058;2022-09-02T03:20:20;5.03;;;2.30;;
13891;SDS011;7016;48.172;8.058;2022-09-02T03:22:48;5.80;;;2.83;;
13891;SDS011;7016;48.172;8.058;2022-09-02T03:25:17;5.15;;;2.75;;
13891;SDS011;7016;48.172;8.058;2022-09-02T03:27:44;4.35;;;2.50;;
13891;SDS011;7016;48.172;8.058;2022-09-02T03:30:12;4.30;;;2.10;;
13891;SDS011;7016;48.172;8.058;2022-09-02T03:32:41;3.13;;;2.42;;
13891;SDS011;7016;48.172;8.058;2022-09-02T03:35:08;3.33;;;2.35;;
13891;SDS011;7016;48.172;8.058;2022-09-02T03:37:36;5.50;;;2.17;;
13891;SDS011;7016;48.172;8.058;2022-09-02T03:40:03;2.78;;;2.30;;
13891;SDS011;7016;48.172;8.058;2022-09-02T03:42:31;3.13;;;1.80;;
13891;SDS011;7016;48.172;8.058;2022-09-02T03:44:57;3.20;;;2.30;;
13891;SDS011;7016;48.172;8.058;2022-09-02T03:47:23;2.67;;;2.10;;
13891;SDS011;7016;48.172;8.058;2022-09-02T03:49:49;6.60;;;2.10;;
13891;SDS011;7016;48.172;8.058;2022-09-02T03:52:15;3.90;;;1.98;;
13891;SDS011;7016;48.172;8.058;2022-09-02T03:54:41;2.83;;;1.90;;
13891;SDS011;7016;48.172;8.058;2022-09-02T03:57:07;10.23;;;2.60;;
13891;SDS011;7016;48.172;8.058;2022-09-02T03:59:33;3.85;;;1.75;;
13891;SDS011;7016;48.172;8.058;2022-09-02T04:02:02;3.42;;;1.50;;
13891;SDS011;7016;48.172;8.058;2022-09-02T04:04:29;2.67;;;1.90;;
13891;SDS011;7016;48.172;8.058;2022-09-02T04:06:54;2.65;;;2.03;;
13891;SDS011;7016;48.172;8.058;2022-09-02T04:09:21;3.10;;;2.08;;
13891;SDS011;7016;48.172;8.058;2022-09-02T04:11:47;2.35;;;2.08;;
13891;SDS011;7016;48.172;8.058;2022-09-02T04:14:12;4.35;;;2.13;;
13891;SDS011;7016;48.172;8.058;2022-09-02T04:16:38;3.15;;;2.20;;
13891;SDS011;7016;48.172;8.058;2022-09-02T04:19:05;5.93;;;2.45;;
13891;SDS011;7016;48.172;8.058;2022-09-02T04:21:34;3.50;;;2.38;;
13891;SDS011;7016;48.172;8.058;2022-09-02T04:24:03;4.05;;;2.35;;
13891;SDS011;7016;48.172;8.058;2022-09-02T04:26:30;3.60;;;1.92;;
13891;SDS011;7016;48.172;8.058;2022-09-02T04:28:56;4.93;;;2.15;;
13891;SDS011;7016;48.172;8.058;2022-09-02T04:31:22;5.55;;;2.58;;
13891;SDS011;7016;48.172;8.058;2022-09-02T04:33:49;3.88;;;2.28;;
13891;SDS011;7016;48.172;8.058;2022-09-02T04:36:16;5.32;;;2.45;;
13891;SDS011;7016;48.172;8.058;2022-09-02T04:38:44;4.38;;;2.50;;
13891;SDS011;7016;48.172;8.058;2022-09-02T04:41:11;4.93;;;2.20;;
13891;SDS011;7016;48.172;8.058;2022-09-02T04:43:41;3.67;;;2.30;;
13891;SDS011;7016;48.172;8.058;2022-09-02T04:46:08;3.95;;;2.08;;
13891;SDS011;7016;48.172;8.058;2022-09-02T04:48:36;5.32;;;2.30;;
13891;SDS011;7016;48.172;8.058;2022-09-02T04:51:04;4.88;;;2.40;;
13891;SDS011;7016;48.172;8.058;2022-09-02T04:53:31;3.30;;;2.30;;
13891;SDS011;7016;48.172;8.058;2022-09-02T04:55:57;5.30;;;2.67;;
13891;SDS011;7016;48.172;8.058;2022-09-02T04:58:23;5.40;;;2.83;;
13891;SDS011;7016;48.172;8.058;2022-09-02T05:00:49;4.35;;;2.58;;
13891;SDS011;7016;48.172;8.058;2022-09-02T05:03:15;5.35;;;2.75;;
13891;SDS011;7016;48.172;8.058;2022-09-02T05:05:40;8.23;;;2.63;;
13891;SDS011;7016;48.172;8.058;2022-09-02T05:08:06;5.47;;;2.70;;
13891;SDS011;7016;48.172;8.058;2022-09-02T05:10:32;4.05;;;2.40;;
13891;SDS011;7016;48.172;8.058;2022-09-02T05:12:58;7.72;;;2.85;;
13891;SDS011;7016;48.172;8.058;2022-09-02T05:15:24;4.75;;;2.35;;
13891;SDS011;7016;48.172;8.058;2022-09-02T05:17:51;4.47;;;2.60;;
13891;SDS011;7016;48.172;8.058;2022-09-02T05:20:17;4.53;;;3.00;;
13891;SDS011;7016;48.172;8.058;2022-09-02T05:22:43;3.35;;;2.60;;
13891;SDS011;7016;48.172;8.058;2022-09-02T05:25:09;7.63;;;3.00;;
13891;SDS011;7016;48.172;8.058;2022-09-02T05:27:36;5.60;;;2.92;;
13891;SDS011;7016;48.172;8.058;2022-09-02T05:30:03;3.38;;;2.42;;
13891;SDS011;7016;48.172;8.058;2022-09-02T05:32:29;5.88;;;2.35;;
13891;SDS011;7016;48.172;8.058;2022-09-02T05:34:56;6.72;;;2.60;;
13891;SDS011;7016;48.172;8.058;2022-09-02T05:37:22;4.18;;;2.63;;
13891;SDS011;7016;48.172;8.058;2022-09-02T05:39:48;6.68;;;2.40;;
13891;SDS011;7016;48.172;8.058;2022-09-02T05:42:14;5.13;;;2.28;;
13891;SDS011;7016;48.172;8.058;2022-09-02T05:44:41;6.07;;;2.25;;
13891;SDS011;7016;48.172;8.058;2022-09-02T05:47:09;2.40;;;2.00;;
13891;SDS011;7016;48.172;8.058;2022-09-02T05:49:35;3.53;;;2.40;;
13891;SDS011;7016;48.172;8.058;2022-09-02T05:52:01;4.32;;;2.47;;
13891;SDS011;7016;48.172;8.058;2022-09-02T05:54:32;6.93;;;2.65;;
13891;SDS011;7016;48.172;8.058;2022-09-02T05:57:02;6.22;;;2.88;;
13891;SDS011;7016;48.172;8.058;2022-09-02T05:59:30;6.97;;;2.67;;
13891;SDS011;7016;48.172;8.058;2022-09-02T06:01:57;7.82;;;2.55;;
13891;SDS011;7016;48.172;8.058;2022-09-02T06:04:23;4.80;;;2.20;;
13891;SDS011;7016;48.172;8.058;2022-09-02T06:06:50;3.95;;;2.15;;
13891;SDS011;7016;48.172;8.058;2022-09-02T06:09:17;2.70;;;2.05;;
13891;SDS011;7016;48.172;8.058;2022-09-02T06:11:45;5.15;;;2.10;;
13891;SDS011;7016;48.172;8.058;2022-09-02T06:14:17;4.72;;;2.00;;
13891;SDS011;7016;48.172;8.058;2022-09-02T06:16:45;3.20;;;2.03;;
13891;SDS011;7016;48.172;8.058;2022-09-02T06:19:12;3.45;;;2.17;;
13891;SDS011;7016;48.172;8.058;2022-09-02T06:21:38;3.47;;;1.90;;
13891;SDS011;7016;48.172;8.058;2022-09-02T06:24:07;2.78;;;1.90;;
13891;SDS011;7016;48.172;8.058;2022-09-02T06:26:37;5.13;;;2.00;;
13891;SDS011;7016;48.172;8.058;2022-09-02T06:29:05;2.72;;;1.60;;
13891;SDS011;7016;48.172;8.058;2022-09-02T06:31:32;4.40;;;1.77;;
13891;SDS011;7016;48.172;8.058;2022-09-02T06:33:57;4.32;;;1.98;;
13891;SDS011;7016;48.172;8.058;2022-09-02T06:36:24;3.83;;;2.30;;
13891;SDS011;7016;48.172;8.058;2022-09-02T06:38:52;6.63;;;2.45;;
13891;SDS011;7016;48.172;8.058;2022-09-02T06:41:21;6.38;;;2.42;;
13891;SDS011;7016;48.172;8.058;2022-09-02T06:43:48;4.38;;;2.58;;
13891;SDS011;7016;48.172;8.058;2022-09-02T06:46:16;6.68;;;3.30;;
13891;SDS011;7016;48.172;8.058;2022-09-02T06:48:47;7.97;;;2.97;;
13891;SDS011;7016;48.172;8.058;2022-09-02T06:51:17;5.90;;;2.60;;
13891;SDS011;7016;48.172;8.058;2022-09-02T06:53:44;7.05;;;2.58;;
13891;SDS011;7016;48.172;8.058;2022-09-02T06:56:10;6.88;;;2.80;;
13891;SDS011;7016;48.172;8.058;2022-09-02T06:58:36;4.70;;;2.70;;
13891;SDS011;7016;48.172;8.058;2022-09-02T07:01:02;3.83;;;2.10;;
13891;SDS011;7016;48.172;8.058;2022-09-02T07:03:28;5.00;;;2.45;;
13891;SDS011;7016;48.172;8.058;2022-09-02T07:06:12;4.88;;;2.28;;
13891;SDS011;7016;48.172;8.058;2022-09-02T07:08:38;4.05;;;2.10;;
13891;SDS011;7016;48.172;8.058;2022-09-02T07:11:06;4.57;;;1.90;;
13891;SDS011;7016;48.172;8.058;2022-09-02T07:13:40;5.70;;;2.22;;
13891;SDS011;7016;48.172;8.058;2022-09-02T07:16:06;4.90;;;2.00;;
13891;SDS011;7016;48.172;8.058;2022-09-02T07:18:32;4.55;;;1.95;;
13891;SDS011;7016;48.172;8.058;2022-09-02T07:20:59;3.97;;;2.22;;
13891;SDS011;7016;48.172;8.058;2022-09-02T07:23:25;5.93;;;2.00;;
13891;SDS011;7016;48.172;8.058;2022-09-02T07:25:51;4.47;;;1.67;;
13891;SDS011;7016;48.172;8.058;2022-09-02T07:28:20;5.20;;;1.95;;
13891;SDS011;7016;48.172;8.058;2022-09-02T07:30:46;2.70;;;1.60;;
13891;SDS011;7016;48.172;8.058;2022-09-02T07:33:13;2.78;;;1.50;;
13891;SDS011;7016;48.172;8.058;2022-09-02T07:35:42;5.18;;;1.90;;
13891;SDS011;7016;48.172;8.058;2022-09-02T07:38:09;2.28;;;1.77;;
13891;SDS011;7016;48.172;8.058;2022-09-02T07:40:36;4.10;;;1.45;;
13891;SDS011;7016;48.172;8.058;2022-09-02T07:43:05;6.65;;;2.22;;
13891;SDS011;7016;48.172;8.058;2022-09-02T07:45:32;2.80;;;1.60;;
13891;SDS011;7016;48.172;8.058;2022-09-02T07:47:58;3.75;;;1.80;;
13891;SDS011;7016;48.172;8.058;2022-09-02T07:50:25;3.75;;;1.60;;
13891;SDS011;7016;48.172;8.058;2022-09-02T07:52:55;2.92;;;1.60;;
13891;SDS011;7016;48.172;8.058;2022-09-02T07:55:22;2.85;;;1.55;;
13891;SDS011;7016;48.172;8.058;2022-09-02T07:57:49;2.55;;;1.60;;
13891;SDS011;7016;48.172;8.058;2022-09-02T08:00:18;3.40;;;1.88;;
13891;SDS011;7016;48.172;8.058;2022-09-02T08:02:45;5.00;;;1.40;;
13891;SDS011;7016;48.172;8.058;2022-09-02T08:05:11;3.72;;;1.60;;
13891;SDS011;7016;48.172;8.058;2022-09-02T08:07:37;4.22;;;1.90;;
13891;SDS011;7016;48.172;8.058;2022-09-02T08:10:04;6.18;;;1.70;;
13891;SDS011;7016;48.172;8.058;2022-09-02T08:12:34;3.60;;;1.70;;
13891;SDS011;7016;48.172;8.058;2022-09-02T08:15:01;8.70;;;1.90;;
13891;SDS011;7016;48.172;8.058;2022-09-02T08:17:29;3.42;;;1.40;;
13891;SDS011;7016;48.172;8.058;2022-09-02T08:19:54;4.25;;;1.75;;
13891;SDS011;7016;48.172;8.058;2022-09-02T08:22:20;2.55;;;1.73;;
13891;SDS011;7016;48.172;8.058;2022-09-02T08:24:46;3.15;;;1.60;;
13891;SDS011;7016;48.172;8.058;2022-09-02T08:27:12;5.07;;;1.70;;
13891;SDS011;7016;48.172;8.058;2022-09-02T08:29:38;2.70;;;1.50;;
13891;SDS011;7016;48.172;8.058;2022-09-02T08:32:03;3.42;;;1.70;;
13891;SDS011;7016;48.172;8.058;2022-09-02T08:34:30;2.72;;;1.60;;
13891;SDS011;7016;48.172;8.058;2022-09-02T08:36:56;3.03;;;1.58;;
13891;SDS011;7016;48.172;8.058;2022-09-02T08:39:21;4.18;;;1.80;;
13891;SDS011;7016;48.172;8.058;2022-09-02T08:46:52;4.22;;;1.80;;
13891;SDS011;7016;48.172;8.058;2022-09-02T08:49:24;2.75;;;1.73;;
13891;SDS011;7016;48.172;8.058;2022-09-02T08:51:55;2.33;;;1.63;;
13891;SDS011;7016;48.172;8.058;2022-09-02T08:54:45;4.13;;;1.75;;
13891;SDS011;7016;48.172;8.058;2022-09-02T08:57:21;2.25;;;1.40;;
13891;SDS011;7016;48.172;8.058;2022-09-02T08:59:52;2.75;;;1.60;;
13891;SDS011;7016;48.172;8.058;2022-09-02T09:02:29;2.55;;;1.30;;
13891;SDS011;7016;48.172;8.058;2022-09-02T09:11:08;2.28;;;1.40;;
13891;SDS011;7016;48.172;8.058;2022-09-02T09:16:28;7.18;;;1.73;;
13891;SDS011;7016;48.172;8.058;2022-09-02T09:22:11;3.70;;;1.50;;
13891;SDS011;7016;48.172;8.058;2022-09-02T09:24:42;8.13;;;3.45;;
13891;SDS011;7016;48.172;8.058;2022-09-02T09:27:11;3.80;;;1.60;;
13891;SDS011;7016;48.172;8.058;2022-09-02T09:29:39;2.03;;;1.20;;
13891;SDS011;7016;48.172;8.058;2022-09-02T09:32:05;4.35;;;1.50;;
13891;SDS011;7016;48.172;8.058;2022-09-02T09:37:30;2.50;;;1.13;;
13891;SDS011;7016;48.172;8.058;2022-09-02T09:40:01;1.60;;;1.25;;
13891;SDS011;7016;48.172;8.058;2022-09-02T09:45:37;1.90;;;1.30;;
13891;SDS011;7016;48.172;8.058;2022-09-02T09:50:41;2.40;;;1.35;;
13891;SDS011;7016;48.172;8.058;2022-09-02T09:58:17;2.30;;;1.40;;
13891;SDS011;7016;48.172;8.058;2022-09-02T10:00:45;3.08;;;1.48;;
13891;SDS011;7016;48.172;8.058;2022-09-02T10:03:17;3.40;;;1.42;;
13891;SDS011;7016;48.172;8.058;2022-09-02T10:05:52;2.05;;;1.40;;
13891;SDS011;7016;48.172;8.058;2022-09-02T10:08:29;2.55;;;1.40;;
13891;SDS011;7016;48.172;8.058;2022-09-02T10:11:02;2.20;;;1.30;;
13891;SDS011;7016;48.172;8.058;2022-09-02T10:24:21;3.28;;;1.20;;
13891;SDS011;7016;48.172;8.058;2022-09-02T10:26:45;2.47;;;1.00;;
13891;SDS011;7016;48.172;8.058;2022-09-02T10:29:26;1.50;;;1.10;;
13891;SDS011;7016;48.172;8.058;2022-09-02T10:37:51;3.85;;;1.50;;
13891;SDS011;7016;48.172;8.058;2022-09-02T10:40:34;2.63;;;1.30;;
13891;SDS011;7016;48.172;8.058;2022-09-02T10:45:59;1.98;;;1.20;;
13891;SDS011;7016;48.172;8.058;2022-09-02T10:56:47;1.70;;;1.38;;
13891;SDS011;7016;48.172;8.058;2022-09-02T10:59:20;1.63;;;1.13;;
13891;SDS011;7016;48.172;8.058;2022-09-02T11:02:04;1.90;;;1.15;;
13891;SDS011;7016;48.172;8.058;2022-09-02T11:05:06;2.70;;;1.40;;
13891;SDS011;7016;48.172;8.058;2022-09-02T11:07:43;2.47;;;1.40;;
13891;SDS011;7016;48.172;8.058;2022-09-02T11:10:24;2.83;;;1.40;;
13891;SDS011;7016;48.172;8.058;2022-09-02T11:12:56;1.70;;;1.30;;
13891;SDS011;7016;48.172;8.058;2022-09-02T11:18:10;2.40;;;1.33;;
13891;SDS011;7016;48.172;8.058;2022-09-02T11:20:46;1.63;;;1.10;;
13891;SDS011;7016;48.172;8.058;2022-09-02T11:23:37;2.65;;;1.45;;
13891;SDS011;7016;48.172;8.058;2022-09-02T11:26:16;1.73;;;1.20;;
13891;SDS011;7016;48.172;8.058;2022-09-02T11:29:13;3.15;;;1.52;;
13891;SDS011;7016;48.172;8.058;2022-09-02T11:32:16;2.65;;;1.33;;
13891;SDS011;7016;48.172;8.058;2022-09-02T11:35:02;2.20;;;1.30;;
13891;SDS011;7016;48.172;8.058;2022-09-02T11:37:53;1.67;;;1.30;;
13891;SDS011;7016;48.172;8.058;2022-09-02T11:40:35;2.55;;;1.30;;
13891;SDS011;7016;48.172;8.058;2022-09-02T11:53:47;1.90;;;1.30;;
13891;SDS011;7016;48.172;8.058;2022-09-02T11:56:18;6.35;;;1.60;;
13891;SDS011;7016;48.172;8.058;2022-09-02T11:58:49;1.73;;;1.15;;
13891;SDS011;7016;48.172;8.058;2022-09-02T12:01:36;3.58;;;1.40;;
13891;SDS011;7016;48.172;8.058;2022-09-02T12:06:35;1.58;;;1.20;;
13891;SDS011;7016;48.172;8.058;2022-09-02T12:09:05;1.20;;;1.10;;
13891;SDS011;7016;48.172;8.058;2022-09-02T12:11:40;2.88;;;1.33;;
13891;SDS011;7016;48.172;8.058;2022-09-02T12:19:38;1.80;;;1.50;;
13891;SDS011;7016;48.172;8.058;2022-09-02T12:27:24;2.05;;;1.20;;
13891;SDS011;7016;48.172;8.058;2022-09-02T12:30:07;1.30;;;1.20;;
13891;SDS011;7016;48.172;8.058;2022-09-02T12:35:48;2.42;;;1.23;;
13891;SDS011;7016;48.172;8.058;2022-09-02T12:43:25;2.33;;;1.20;;
13891;SDS011;7016;48.172;8.058;2022-09-02T12:46:04;1.88;;;1.25;;
13891;SDS011;7016;48.172;8.058;2022-09-02T12:48:44;1.85;;;1.35;;
13891;SDS011;7016;48.172;8.058;2022-09-02T12:52:07;1.98;;;1.40;;
13891;SDS011;7016;48.172;8.058;2022-09-02T12:54:23;2.05;;;1.50;;
13891;SDS011;7016;48.172;8.058;2022-09-02T12:59:24;2.25;;;1.20;;
13891;SDS011;7016;48.172;8.058;2022-09-02T13:04:58;2.42;;;1.33;;
13891;SDS011;7016;48.172;8.058;2022-09-02T13:30:18;1.98;;;1.35;;
13891;SDS011;7016;48.172;8.058;2022-09-02T13:33:07;1.30;;;1.20;;
13891;SDS011;7016;48.172;8.058;2022-09-02T13:35:37;2.08;;;1.10;;
13891;SDS011;7016;48.172;8.058;2022-09-02T13:38:07;1.65;;;1.30;;
13891;SDS011;7016;48.172;8.058;2022-09-02T13:40:35;2.03;;;1.33;;
13891;SDS011;7016;48.172;8.058;2022-09-02T13:43:03;2.22;;;1.20;;
13891;SDS011;7016;48.172;8.058;2022-09-02T13:45:42;3.08;;;1.20;;
13891;SDS011;7016;48.172;8.058;2022-09-02T13:48:09;1.52;;;1.10;;
13891;SDS011;7016;48.172;8.058;2022-09-02T13:50:42;1.48;;;1.10;;
13891;SDS011;7016;48.172;8.058;2022-09-02T13:53:12;1.70;;;1.23;;
13891;SDS011;7016;48.172;8.058;2022-09-02T13:55:47;5.07;;;1.15;;
13891;SDS011;7016;48.172;8.058;2022-09-02T14:00:54;3.42;;;1.48;;
13891;SDS011;7016;48.172;8.058;2022-09-02T14:03:45;3.20;;;1.42;;
13891;SDS011;7016;48.172;8.058;2022-09-02T14:06:16;1.88;;;1.20;;
13891;SDS011;7016;48.172;8.058;2022-09-02T14:08:44;3.30;;;1.30;;
13891;SDS011;7016;48.172;8.058;2022-09-02T14:11:14;2.17;;;1.35;;
13891;SDS011;7016;48.172;8.058;2022-09-02T14:13:42;2.90;;;1.58;;
13891;SDS011;7016;48.172;8.058;2022-09-02T14:16:22;2.20;;;1.33;;
13891;SDS011;7016;48.172;8.058;2022-09-02T14:21:33;1.27;;;1.05;;
13891;SDS011;7016;48.172;8.058;2022-09-02T14:24:00;2.53;;;1.55;;
13891;SDS011;7016;48.172;8.058;2022-09-02T14:26:36;1.63;;;1.33;;
13891;SDS011;7016;48.172;8.058;2022-09-02T14:29:05;3.00;;;1.60;;
13891;SDS011;7016;48.172;8.058;2022-09-02T14:31:32;1.77;;;1.30;;
13891;SDS011;7016;48.172;8.058;2022-09-02T14:33:59;3.50;;;1.52;;
13891;SDS011;7016;48.172;8.058;2022-09-02T14:36:36;3.72;;;1.70;;
13891;SDS011;7016;48.172;8.058;2022-09-02T14:39:10;1.73;;;1.38;;
13891;SDS011;7016;48.172;8.058;2022-09-02T14:41:47;2.50;;;1.65;;
13891;SDS011;7016;48.172;8.058;2022-09-02T14:44:16;4.20;;;1.40;;
13891;SDS011;7016;48.172;8.058;2022-09-02T14:46:58;2.65;;;1.52;;
13891;SDS011;7016;48.172;8.058;2022-09-02T14:49:27;3.08;;;1.40;;
13891;SDS011;7016;48.172;8.058;2022-09-02T14:52:02;1.73;;;1.40;;
13891;SDS011;7016;48.172;8.058;2022-09-02T14:54:41;2.22;;;1.42;;
13891;SDS011;7016;48.172;8.058;2022-09-02T14:59:54;4.85;;;1.40;;
13891;SDS011;7016;48.172;8.058;2022-09-02T15:04:51;4.63;;;1.45;;
13891;SDS011;7016;48.172;8.058;2022-09-02T15:07:18;3.55;;;1.50;;
13891;SDS011;7016;48.172;8.058;2022-09-02T15:09:43;2.47;;;1.40;;
13891;SDS011;7016;48.172;8.058;2022-09-02T15:12:13;4.28;;;1.65;;
13891;SDS011;7016;48.172;8.058;2022-09-02T15:14:39;1.80;;;1.15;;
13891;SDS011;7016;48.172;8.058;2022-09-02T15:17:06;3.58;;;1.17;;
13891;SDS011;7016;48.172;8.058;2022-09-02T15:19:33;3.03;;;1.50;;
13891;SDS011;7016;48.172;8.058;2022-09-02T15:21:59;3.13;;;1.40;;
13891;SDS011;7016;48.172;8.058;2022-09-02T15:24:25;2.78;;;1.48;;
13891;SDS011;7016;48.172;8.058;2022-09-02T15:26:50;1.92;;;1.45;;
13891;SDS011;7016;48.172;8.058;2022-09-02T15:29:16;1.63;;;1.30;;
13891;SDS011;7016;48.172;8.058;2022-09-02T15:31:43;2.95;;;1.20;;
13891;SDS011;7016;48.172;8.058;2022-09-02T15:34:09;2.38;;;1.20;;
13891;SDS011;7016;48.172;8.058;2022-09-02T15:36:35;3.20;;;1.38;;
13891;SDS011;7016;48.172;8.058;2022-09-02T15:39:02;2.30;;;1.50;;
13891;SDS011;7016;48.172;8.058;2022-09-02T15:41:28;1.40;;;1.23;;
13891;SDS011;7016;48.172;8.058;2022-09-02T15:43:55;3.17;;;1.42;;
13891;SDS011;7016;48.172;8.058;2022-09-02T15:46:30;3.20;;;1.60;;
13891;SDS011;7016;48.172;8.058;2022-09-02T15:49:01;1.75;;;1.38;;
13891;SDS011;7016;48.172;8.058;2022-09-02T15:51:29;5.90;;;1.45;;
13891;SDS011;7016;48.172;8.058;2022-09-02T15:53:59;4.18;;;1.70;;
13891;SDS011;7016;48.172;8.058;2022-09-02T15:56:30;2.15;;;1.52;;
13891;SDS011;7016;48.172;8.058;2022-09-02T15:59:02;1.88;;;1.42;;
13891;SDS011;7016;48.172;8.058;2022-09-02T16:01:33;3.65;;;1.48;;
13891;SDS011;7016;48.172;8.058;2022-09-02T16:04:01;4.85;;;1.73;;
13891;SDS011;7016;48.172;8.058;2022-09-02T16:06:28;3.17;;;1.48;;
13891;SDS011;7016;48.172;8.058;2022-09-02T16:08:54;2.13;;;1.40;;
13891;SDS011;7016;48.172;8.058;2022-09-02T16:11:20;3.03;;;1.23;;
13891;SDS011;7016;48.172;8.058;2022-09-02T16:13:46;5.15;;;1.50;;
13891;SDS011;7016;48.172;8.058;2022-09-02T16:16:13;1.90;;;1.50;;
13891;SDS011;7016;48.172;8.058;2022-09-02T16:18:40;2.10;;;1.60;;
13891;SDS011;7016;48.172;8.058;2022-09-02T16:21:08;5.10;;;1.50;;
13891;SDS011;7016;48.172;8.058;2022-09-02T16:23:35;4.22;;;1.70;;
13891;SDS011;7016;48.172;8.058;2022-09-02T16:28:43;2.08;;;1.40;;
13891;SDS011;7016;48.172;8.058;2022-09-02T16:31:11;1.80;;;1.33;;
13891;SDS011;7016;48.172;8.058;2022-09-02T16:33:41;2.78;;;1.60;;
13891;SDS011;7016;48.172;8.058;2022-09-02T16:36:08;1.77;;;1.25;;
13891;SDS011;7016;48.172;8.058;2022-09-02T16:38:35;1.75;;;1.55;;
13891;SDS011;7016;48.172;8.058;2022-09-02T16:41:01;1.90;;;1.70;;
13891;SDS011;7016;48.172;8.058;2022-09-02T16:43:29;4.22;;;1.95;;
13891;SDS011;7016;48.172;8.058;2022-09-02T16:45:57;2.17;;;1.30;;
13891;SDS011;7016;48.172;8.058;2022-09-02T16:48:28;6.57;;;1.55;;
13891;SDS011;7016;48.172;8.058;2022-09-02T16:51:00;5.05;;;1.20;;
13891;SDS011;7016;48.172;8.058;2022-09-02T16:53:27;3.25;;;1.23;;
13891;SDS011;7016;48.172;8.058;2022-09-02T16:55:53;3.13;;;1.10;;
13891;SDS011;7016;48.172;8.058;2022-09-02T16:58:19;3.63;;;1.10;;
13891;SDS011;7016;48.172;8.058;2022-09-02T17:00:45;3.80;;;1.30;;
13891;SDS011;7016;48.172;8.058;2022-09-02T17:03:11;1.92;;;0.95;;
13891;SDS011;7016;48.172;8.058;2022-09-02T17:05:37;2.60;;;1.20;;
13891;SDS011;7016;48.172;8.058;2022-09-02T17:08:04;5.85;;;1.30;;
13891;SDS011;7016;48.172;8.058;2022-09-02T17:10:31;4.63;;;1.27;;
13891;SDS011;7016;48.172;8.058;2022-09-02T17:12:59;3.55;;;1.40;;
13891;SDS011;7016;48.172;8.058;2022-09-02T17:15:26;2.65;;;1.40;;
13891;SDS011;7016;48.172;8.058;2022-09-02T17:17:53;2.55;;;1.20;;
13891;SDS011;7016;48.172;8.058;2022-09-02T17:20:20;3.75;;;1.20;;
13891;SDS011;7016;48.172;8.058;2022-09-02T17:22:46;4.20;;;1.08;;
13891;SDS011;7016;48.172;8.058;2022-09-02T17:25:12;3.80;;;1.08;;
13891;SDS011;7016;48.172;8.058;2022-09-02T17:27:38;2.03;;;1.20;;
13891;SDS011;7016;48.172;8.058;2022-09-02T17:30:06;5.82;;;1.25;;